Terminal Aerodrome Forecast
Issued by NWS

Home | Current Version | Previous Version | Text Only | Print | Product List | Glossary On
Versions: 1 2 3 4 5 6 7 8 9 10 11 12 13 14 15 16 17 18 19 20 21 22 23 24 25 26 27
000
FTUS41 KBUF 291503 AAA
TAFJHW
TAF AMD
KJHW 291503Z 2915/3012 02004KT P6SM SCT250
     FM291700 01007KT P6SM BKN050
     FM292300 03006KT P6SM BKN250
     FM300400 08006KT P6SM BKN070 BKN100
     FM301100 10007KT P6SM VCSH OVC045
      AMD LTD TO CLD VIS AND WIND=

USA.gov is the U.S. government's official web portal to all federal, state and local government web resources and services.